Погода Атотонилько Эль Альтона 2 недели

Халиско, Мексика

25 февраля-09 марта
  • 25февраля
    Сегодня
    +11°
    +32°
    Ясно и безоблачно
    ВремяПогодаТемператураВлажностьДавлениеВетер, м/сВероятность осадков
    00:00Небольшая облачность+18°C51 %636 мм1.1 м/с2 %
    03:00Ясно и безоблачно+13°C53 %634 мм1.3 м/с2 %
    06:00Облачно с прояснениями+11°C63 %633 мм0.9 м/с2 %
    09:00Ясно и безоблачно+18°C48 %637 мм0.4 м/с2 %
    12:00Ясно и безоблачно+27°C24 %639 мм1.1 м/с2 %
    15:00Ясно и безоблачно+31°C14 %637 мм1.4 м/с2 %
    18:00Ясно и безоблачно+29°C21 %636 мм2.3 м/с2 %
    21:00Ясно и безоблачно+21°C28 %636 мм1.7 м/с2 %
  • 26февраля
    Понедельник
    +11°
    +31°
    Ясно и безоблачно
    ВремяПогодаТемператураВлажностьДавлениеВетер, м/сВероятность осадков
    00:00Ясно и безоблачно+16°C44 %636 мм1.1 м/с2 %
    03:00Ясно и безоблачно+14°C61 %634 мм0.7 м/с2 %
    06:00Ясно и безоблачно+12°C65 %634 мм0.9 м/с2 %
    09:00Ясно и безоблачно+18°C45 %638 мм0.3 м/с2 %
    12:00Ясно и безоблачно+27°C25 %639 мм1.3 м/с2 %
    15:00Ясно и безоблачно+30°C15 %637 мм1.9 м/с2 %
    18:00Ясно и безоблачно+29°C18 %636 мм3.0 м/с2 %
    21:00Ясно и безоблачно+21°C37 %635 мм1.6 м/с2 %
  • 27февраля
    Вторник
    +11°
    +31°
    Небольшая облачность
    ВремяПогодаТемператураВлажностьДавлениеВетер, м/сВероятность осадков
    00:00Ясно и безоблачно+16°C40 %634 мм1.5 м/с2 %
    03:00Ясно и безоблачно+13°C50 %633 мм1.3 м/с2 %
    06:00Ясно и безоблачно+12°C60 %633 мм1.0 м/с2 %
    09:00Ясно и безоблачно+18°C41 %636 мм0.3 м/с2 %
    12:00Ясно и безоблачно+27°C23 %638 мм1.7 м/с2 %
    15:00Небольшая облачность+30°C17 %635 мм3.3 м/с2 %
    18:00Ясно и безоблачно+29°C20 %635 мм2.5 м/с2 %
    21:00Ясно и безоблачно+21°C34 %634 мм2.0 м/с2 %
  • 28февраля
    Среда
    +11°
    +30°
    Облачно с прояснениями
    ВремяПогодаТемператураВлажностьДавлениеВетер, м/сВероятность осадков
    00:00Ясно и безоблачно+17°C42 %633 мм1.9 м/с2 %
    03:00Ясно и безоблачно+14°C46 %632 мм1.8 м/с2 %
    06:00Ясно и безоблачно+12°C48 %632 мм0.6 м/с2 %
    09:00Практически безоблачно+17°C30 %636 мм0.1 м/с2 %
    12:00Облачно с прояснениями+27°C13 %638 мм1.5 м/с2 %
    15:00Облачно с прояснениями+30°C10 %636 мм2.7 м/с2 %
    18:00Практически безоблачно+28°C13 %635 мм2.9 м/с2 %
    21:00Практически безоблачно+20°C25 %633 мм2.0 м/с2 %
  • 29февраля
    Четверг
    +11°
    +30°
    Практически безоблачно
    ВремяПогодаТемператураВлажностьДавлениеВетер, м/сВероятность осадков
    00:00Практически безоблачно+16°C29 %634 мм1.9 м/с2 %
    03:00Ясно и безоблачно+12°C39 %632 мм0.8 м/с2 %
    06:00Ясно и безоблачно+12°C48 %633 мм1.6 м/с2 %
    09:00Ясно и безоблачно+18°C54 %637 мм1.9 м/с2 %
    12:00Ясно и безоблачно+27°C25 %638 мм1.7 м/с3 %
    15:00Практически безоблачно+30°C18 %636 мм3.6 м/с2 %
    18:00Облачно с прояснениями+29°C21 %636 мм3.7 м/с2 %
    21:00Облачно с прояснениями+21°C44 %636 мм1.8 м/с2 %
Мы используем cookies
Соглашаюсь